Time;durP1;ratioP1;P1;durP2;ratioP2;P2;SDS_P1;SDS_P2;PMS_P1;PMS_P2;Temp;Humidity;BMP_temperature;BMP_pressure;BME280_temperature;BME280_humidity;BME280_pressure;Samples;Min_cycle;Max_cycle;Signal;HPM_P1;HPM_P2
2022/04/03 00:01:17;;;;;;;;;13.50;11.00;;;;;;;;4952364;28;29200;-81
2022/04/03 00:03:42;;;;;;;;;12.25;12.25;;;;;;;;4951720;28;28469;-81
2022/04/03 00:06:07;;;;;;;;;12.75;12.50;;;;;;;;4951855;28;28449;-81
2022/04/03 00:08:33;;;;;;;;;13.00;12.00;;;;;;;;4951856;28;28305;-81
2022/04/03 00:10:59;;;;;;;;;10.00;10.00;;;;;;;;4951665;28;27898;-81
2022/04/03 00:13:25;;;;;;;;;8.40;8.40;;;;;;;;4951818;28;29446;-81
2022/04/03 00:15:50;;;;;;;;;10.00;10.00;;;;;;;;4951827;28;28328;-81
2022/04/03 00:18:16;;;;;;;;;7.33;7.33;;;;;;;;4951987;28;28470;-81
2022/04/03 00:20:42;;;;;;;;;6.25;6.25;;;;;;;;4952053;28;28310;-81
2022/04/03 00:23:07;;;;;;;;;8.50;6.75;;;;;;;;4951748;28;28545;-81
2022/04/03 00:25:33;;;;;;;;;10.25;10.00;;;;;;;;4951934;28;28312;-81
2022/04/03 00:27:58;;;;;;;;;8.00;8.00;;;;;;;;4951535;28;28422;-81
2022/04/03 00:30:23;;;;;;;;;11.50;9.00;;;;;;;;4951688;28;28375;-81
2022/04/03 00:32:49;;;;;;;;;11.25;11.25;;;;;;;;4951190;28;28414;-81
2022/04/03 00:35:16;;;;;;;;;9.00;9.00;;;;;;;;4951453;28;28196;-81
2022/04/03 00:37:41;;;;;;;;;11.25;9.75;;;;;;;;4950429;28;28661;-81
2022/04/03 00:40:07;;;;;;;;;10.00;10.00;;;;;;;;4951496;28;28610;-83
2022/04/03 00:42:33;;;;;;;;;10.00;6.50;;;;;;;;4951557;28;28394;-83
2022/04/03 00:44:59;;;;;;;;;10.00;10.00;;;;;;;;4951721;28;28678;-83
2022/04/03 00:47:25;;;;;;;;;10.00;9.00;;;;;;;;4951376;28;28240;-83
2022/04/03 00:49:51;;;;;;;;;8.60;8.60;;;;;;;;4951636;28;28421;-83
2022/04/03 00:52:16;;;;;;;;;10.75;10.75;;;;;;;;4951158;28;29373;-83
2022/04/03 00:54:42;;;;;;;;;11.25;11.25;;;;;;;;4951279;28;28084;-83
2022/04/03 00:57:08;;;;;;;;;9.80;9.80;;;;;;;;4951046;28;28457;-83
2022/04/03 00:59:34;;;;;;;;;10.00;9.00;;;;;;;;4951408;28;28355;-83
2022/04/03 01:02:00;;;;;;;;;5.00;5.00;;;;;;;;4950491;28;29604;-83
2022/04/03 01:04:25;;;;;;;;;7.00;7.00;;;;;;;;4951305;28;28525;-82
2022/04/03 01:06:50;;;;;;;;;8.50;8.50;;;;;;;;4950606;28;28783;-83
2022/04/03 01:09:15;;;;;;;;;9.00;9.00;;;;;;;;4951336;28;28437;-83
2022/04/03 01:11:41;;;;;;;;;6.00;6.00;;;;;;;;4950605;28;28509;-82
2022/04/03 01:14:06;;;;;;;;;7.00;7.00;;;;;;;;4951217;28;28496;-83
2022/04/03 01:16:35;;;;;;;;;9.00;9.00;;;;;;;;4951267;28;28530;-83
2022/04/03 01:19:01;;;;;;;;;8.80;8.40;;;;;;;;4951413;28;28411;-83
2022/04/03 01:21:26;;;;;;;;;7.00;7.00;;;;;;;;4950903;28;29028;-83
2022/04/03 01:23:54;;;;;;;;;5.67;5.67;;;;;;;;4950782;28;28249;-82
2022/04/03 01:26:19;;;;;;;;;10.00;7.50;;;;;;;;4950862;28;28373;-83
2022/04/03 01:28:44;;;;;;;;;6.00;6.00;;;;;;;;4950718;28;28421;-83
2022/04/03 01:31:10;;;;;;;;;10.00;8.00;;;;;;;;4950745;28;28495;-83
2022/04/03 01:33:35;;;;;;;;;6.75;6.75;;;;;;;;4950776;28;28136;-83
2022/04/03 01:36:00;;;;;;;;;8.33;8.33;;;;;;;;4950271;28;27828;-82
2022/04/03 01:38:26;;;;;;;;;6.33;6.33;;;;;;;;4951308;28;28386;-82
2022/04/03 01:40:51;;;;;;;;;7.00;7.00;;;;;;;;4950597;28;28493;-83
2022/04/03 01:43:16;;;;;;;;;5.00;5.00;;;;;;;;4950562;28;28540;-82
2022/04/03 01:45:41;;;;;;;;;6.00;6.00;;;;;;;;4950606;28;28473;-83
2022/04/03 01:48:08;;;;;;;;;6.00;6.00;;;;;;;;4950896;28;27891;-83
2022/04/03 01:50:33;;;;;;;;;6.00;6.00;;;;;;;;4950744;28;29233;-83
2022/04/03 01:52:58;;;;;;;;;8.00;8.00;;;;;;;;4950710;28;28255;-83
2022/04/03 01:55:25;;;;;;;;;11.00;9.00;;;;;;;;4950595;28;28520;-83
2022/04/03 01:57:51;;;;;;;;;6.80;6.80;;;;;;;;4950628;28;28469;-82
2022/04/03 02:00:16;;;;;;;;;10.00;10.00;;;;;;;;4950337;28;28504;-82
2022/04/03 02:02:42;;;;;;;;;9.00;6.50;;;;;;;;4950690;28;28395;-83
2022/04/03 02:05:07;;;;;;;;;14.00;12.00;;;;;;;;4950403;28;28716;-83
2022/04/03 02:07:35;;;;;;;;;21.00;21.00;;;;;;;;4949989;28;28622;-83
2022/04/03 02:10:02;;;;;;;;;19.75;18.25;;;;;;;;4949867;28;28379;-82
2022/04/03 02:12:28;;;;;;;;;17.00;17.00;;;;;;;;4949679;28;28519;-82
2022/04/03 02:14:53;;;;;;;;;13.33;13.33;;;;;;;;4950375;28;28312;-82
2022/04/03 02:17:18;;;;;;;;;11.25;11.25;;;;;;;;4950354;28;28315;-82
2022/04/03 02:19:44;;;;;;;;;14.00;13.00;;;;;;;;4950000;28;29366;-82
2022/04/03 02:22:09;;;;;;;;;11.67;9.67;;;;;;;;4950090;28;28319;-82
2022/04/03 02:24:34;;;;;;;;;12.00;12.00;;;;;;;;4949885;28;28289;-82
2022/04/03 02:27:00;;;;;;;;;10.00;10.00;;;;;;;;4950379;28;28399;-82
2022/04/03 02:29:25;;;;;;;;;11.00;11.00;;;;;;;;4949516;28;29397;-82
2022/04/03 02:31:51;;;;;;;;;9.00;8.00;;;;;;;;4949978;28;28477;-82
2022/04/03 02:34:17;;;;;;;;;9.40;9.00;;;;;;;;4949516;28;28874;-83
2022/04/03 02:36:43;;;;;;;;;8.00;8.00;;;;;;;;4949700;28;28543;-82
2022/04/03 02:39:08;;;;;;;;;10.25;9.25;;;;;;;;4950231;28;29618;-83
2022/04/03 02:41:34;;;;;;;;;8.75;8.75;;;;;;;;4949726;28;28366;-82
2022/04/03 02:43:59;;;;;;;;;6.80;6.80;;;;;;;;4949626;28;28839;-82
2022/04/03 02:46:25;;;;;;;;;10.25;9.00;;;;;;;;4950148;28;28406;-83
2022/04/03 02:48:50;;;;;;;;;7.75;7.75;;;;;;;;4949567;28;28590;-82
2022/04/03 02:51:15;;;;;;;;;8.00;8.00;;;;;;;;4950080;28;28663;-82
2022/04/03 02:53:40;;;;;;;;;9.00;9.00;;;;;;;;4949653;28;28324;-82
2022/04/03 02:56:06;;;;;;;;;6.00;6.00;;;;;;;;4950142;28;28322;-82
2022/04/03 02:58:31;;;;;;;;;5.67;5.67;;;;;;;;4949473;28;29145;-82
2022/04/03 03:00:56;;;;;;;;;8.00;5.25;;;;;;;;4949576;28;28403;-82
2022/04/03 03:03:21;;;;;;;;;9.00;7.50;;;;;;;;4949762;28;28344;-82
2022/04/03 03:05:47;;;;;;;;;6.67;6.67;;;;;;;;4949764;28;28484;-82
2022/04/03 03:08:12;;;;;;;;;8.00;8.00;;;;;;;;4949571;28;29285;-82
2022/04/03 03:10:37;;;;;;;;;8.75;6.00;;;;;;;;4949613;28;28413;-82
2022/04/03 03:13:03;;;;;;;;;8.75;8.75;;;;;;;;4949411;28;28560;-82
2022/04/03 03:15:28;;;;;;;;;8.25;8.25;;;;;;;;4949764;28;28245;-82
2022/04/03 03:17:55;;;;;;;;;10.00;8.00;;;;;;;;4949447;28;28377;-82
2022/04/03 03:20:21;;;;;;;;;8.00;8.00;;;;;;;;4949668;28;28476;-82
2022/04/03 03:22:46;;;;;;;;;7.20;6.80;;;;;;;;4949270;28;28306;-82
2022/04/03 03:25:11;;;;;;;;;11.00;7.33;;;;;;;;4951920;28;28398;-82
2022/04/03 03:27:39;;;;;;;;;7.50;7.50;;;;;;;;4952814;28;29137;-82
2022/04/03 03:30:05;;;;;;;;;9.00;9.00;;;;;;;;4952485;28;28507;-83
2022/04/03 03:32:30;;;;;;;;;4.80;4.80;;;;;;;;4953048;28;28469;-83
2022/04/03 03:34:55;;;;;;;;;11.00;9.00;;;;;;;;4952570;28;28397;-83
2022/04/03 03:37:21;;;;;;;;;8.67;6.00;;;;;;;;4952393;28;28432;-83
2022/04/03 03:39:47;;;;;;;;;10.00;9.00;;;;;;;;4952653;28;28342;-82
2022/04/03 03:42:12;;;;;;;;;5.40;5.40;;;;;;;;4952546;28;28394;-83
2022/04/03 03:44:37;;;;;;;;;8.00;8.00;;;;;;;;4952651;28;28385;-83
2022/04/03 03:47:03;;;;;;;;;5.67;5.00;;;;;;;;4951994;28;28544;-82
2022/04/03 03:49:28;;;;;;;;;6.00;6.00;;;;;;;;4952290;28;29586;-82
2022/04/03 03:51:53;;;;;;;;;7.50;7.50;;;;;;;;4952564;28;28347;-83
2022/04/03 03:54:18;;;;;;;;;7.33;7.33;;;;;;;;4952536;28;28371;-82
2022/04/03 03:56:44;;;;;;;;;6.00;6.00;;;;;;;;4952136;28;28307;-83
2022/04/03 03:59:09;;;;;;;;;6.50;6.50;;;;;;;;4951979;28;28264;-83
2022/04/03 04:01:34;;;;;;;;;9.00;7.00;;;;;;;;4952422;28;28343;-83
2022/04/03 04:04:00;;;;;;;;;11.50;11.00;;;;;;;;4952270;28;28461;-83
2022/04/03 04:06:25;;;;;;;;;12.50;9.75;;;;;;;;4951841;28;28378;-83
2022/04/03 04:08:51;;;;;;;;;9.00;9.00;;;;;;;;4951720;28;28643;-82
2022/04/03 04:11:16;;;;;;;;;9.25;9.25;;;;;;;;4951750;28;28370;-82
2022/04/03 04:13:41;;;;;;;;;10.00;9.00;;;;;;;;4951875;28;28368;-82
2022/04/03 04:16:06;;;;;;;;;10.00;10.00;;;;;;;;4952018;28;28522;-83
2022/04/03 04:18:32;;;;;;;;;10.25;10.25;;;;;;;;4951895;28;28339;-83
2022/04/03 04:20:57;;;;;;;;;8.00;8.00;;;;;;;;4952026;28;28495;-82
2022/04/03 04:23:22;;;;;;;;;9.00;9.00;;;;;;;;4952040;28;28387;-83
2022/04/03 04:25:48;;;;;;;;;8.75;8.75;;;;;;;;4951853;28;29571;-82
2022/04/03 04:28:13;;;;;;;;;11.00;8.00;;;;;;;;4951543;28;28572;-83
2022/04/03 04:30:38;;;;;;;;;12.00;12.00;;;;;;;;4951625;28;28537;-82
2022/04/03 04:33:04;;;;;;;;;11.25;11.00;;;;;;;;4954085;28;28506;-82
2022/04/03 04:35:30;;;;;;;;;15.00;11.00;;;;;;;;4955456;28;28216;-83
2022/04/03 04:37:55;;;;;;;;;12.00;9.00;;;;;;;;4970636;28;28400;-82
2022/04/03 04:40:20;;;;;;;;;10.25;10.25;;;;;;;;4971310;28;28393;-83
2022/04/03 04:42:47;;;;;;;;;7.50;7.50;;;;;;;;4970975;28;28384;-83
2022/04/03 04:45:14;;;;;;;;;11.00;11.00;;;;;;;;4957449;28;28374;-82
2022/04/03 04:47:40;;;;;;;;;12.80;11.20;;;;;;;;4950966;28;28573;-82
2022/04/03 04:50:06;;;;;;;;;9.00;9.00;;;;;;;;4951315;28;28465;-83
2022/04/03 04:52:31;;;;;;;;;10.50;10.25;;;;;;;;4951907;28;28422;-82
2022/04/03 04:54:56;;;;;;;;;11.33;11.33;;;;;;;;4951364;28;28517;-82
2022/04/03 04:57:22;;;;;;;;;9.50;9.00;;;;;;;;4951343;28;28569;-83
2022/04/03 04:59:47;;;;;;;;;7.00;7.00;;;;;;;;4951137;28;27789;-81
2022/04/03 05:02:12;;;;;;;;;10.00;10.00;;;;;;;;4951373;28;28400;-82
2022/04/03 05:04:37;;;;;;;;;10.00;9.00;;;;;;;;4951435;28;28456;-82
2022/04/03 05:07:03;;;;;;;;;9.75;9.75;;;;;;;;4950887;28;28565;-83
2022/04/03 05:09:28;;;;;;;;;10.75;9.00;;;;;;;;4951134;28;28351;-83
2022/04/03 05:11:53;;;;;;;;;10.50;10.50;;;;;;;;4951482;28;28365;-82
2022/04/03 05:14:19;;;;;;;;;9.00;9.00;;;;;;;;4950739;28;28633;-82
2022/04/03 05:16:44;;;;;;;;;9.25;9.00;;;;;;;;4950971;28;28763;-82
2022/04/03 05:19:13;;;;;;;;;9.50;9.25;;;;;;;;4951036;28;28371;-82
2022/04/03 05:21:39;;;;;;;;;7.00;7.00;;;;;;;;4950976;28;28401;-83
2022/04/03 05:24:04;;;;;;;;;7.00;6.75;;;;;;;;4950763;28;28805;-82
2022/04/03 05:26:29;;;;;;;;;7.75;7.75;;;;;;;;4950902;28;28369;-82
2022/04/03 05:28:55;;;;;;;;;7.50;7.50;;;;;;;;4933602;28;28444;-82
2022/04/03 05:31:20;;;;;;;;;11.25;11.25;;;;;;;;4950806;28;28331;-83
2022/04/03 05:33:45;;;;;;;;;10.00;8.00;;;;;;;;4950881;28;29584;-83
2022/04/03 05:36:11;;;;;;;;;8.50;8.50;;;;;;;;4950456;28;28478;-82
2022/04/03 05:38:36;;;;;;;;;9.00;8.67;;;;;;;;4951051;28;28363;-83
2022/04/03 05:41:02;;;;;;;;;11.00;8.75;;;;;;;;4951045;28;28324;-83
2022/04/03 05:43:27;;;;;;;;;6.75;6.75;;;;;;;;4950335;28;28380;-83
2022/04/03 05:45:52;;;;;;;;;8.00;8.00;;;;;;;;4950527;28;28377;-83
2022/04/03 05:48:17;;;;;;;;;11.00;11.00;;;;;;;;4950297;28;28341;-82
2022/04/03 05:50:43;;;;;;;;;12.00;11.00;;;;;;;;4950735;28;28530;-82
2022/04/03 05:53:08;;;;;;;;;11.00;11.00;;;;;;;;4950252;28;29256;-82
2022/04/03 05:55:34;;;;;;;;;11.75;11.75;;;;;;;;4950122;28;28487;-83
2022/04/03 05:58:00;;;;;;;;;9.00;8.00;;;;;;;;4950491;28;28465;-82
2022/04/03 06:00:25;;;;;;;;;11.00;11.00;;;;;;;;4949891;28;28497;-82
2022/04/03 06:02:50;;;;;;;;;12.50;10.50;;;;;;;;4950624;28;28696;-82
2022/04/03 06:05:19;;;;;;;;;10.00;10.00;;;;;;;;4950342;28;28515;-82
2022/04/03 06:07:44;;;;;;;;;14.00;12.60;;;;;;;;4949914;28;28497;-82
2022/04/03 06:10:10;;;;;;;;;13.00;10.00;;;;;;;;4950461;28;28426;-82
2022/04/03 06:12:35;;;;;;;;;12.25;12.25;;;;;;;;4950239;28;29254;-83
2022/04/03 06:15:00;;;;;;;;;10.75;10.50;;;;;;;;4949892;28;28324;-83
2022/04/03 06:17:26;;;;;;;;;10.67;10.67;;;;;;;;4932905;28;28594;-82
2022/04/03 06:19:51;;;;;;;;;8.75;8.50;;;;;;;;4950410;28;28394;-82
2022/04/03 06:22:16;;;;;;;;;11.00;10.00;;;;;;;;4949750;28;28517;-82
2022/04/03 06:24:41;;;;;;;;;11.00;10.00;;;;;;;;4950028;28;28445;-82
2022/04/03 06:27:07;;;;;;;;;10.00;10.00;;;;;;;;4950136;28;28243;-82
2022/04/03 06:29:32;;;;;;;;;11.50;10.25;;;;;;;;4950187;28;28331;-82
2022/04/03 06:31:57;;;;;;;;;8.75;8.75;;;;;;;;4950130;28;28444;-82
2022/04/03 06:34:22;;;;;;;;;7.25;7.25;;;;;;;;4950086;28;28327;-82
2022/04/03 06:36:48;;;;;;;;;7.75;7.75;;;;;;;;4949534;28;28437;-82
2022/04/03 06:39:13;;;;;;;;;9.50;9.50;;;;;;;;4950092;28;28381;-82
2022/04/03 06:41:39;;;;;;;;;12.00;10.00;;;;;;;;4949668;28;29227;-82
2022/04/03 06:44:04;;;;;;;;;7.50;7.50;;;;;;;;4950097;28;28639;-83
2022/04/03 06:46:29;;;;;;;;;8.00;8.00;;;;;;;;4950009;28;28480;-82
2022/04/03 06:48:55;;;;;;;;;7.00;7.00;;;;;;;;4949967;28;28414;-82
2022/04/03 06:51:20;;;;;;;;;10.00;10.00;;;;;;;;4952136;28;28358;-82
2022/04/03 06:53:46;;;;;;;;;8.75;8.75;;;;;;;;4949734;28;28486;-82
2022/04/03 06:56:11;;;;;;;;;12.00;11.00;;;;;;;;4949896;28;28404;-82
2022/04/03 06:58:37;;;;;;;;;8.00;8.00;;;;;;;;4949851;28;28385;-82
2022/04/03 07:01:02;;;;;;;;;8.00;8.00;;;;;;;;4952803;28;28833;-83
2022/04/03 07:03:28;;;;;;;;;10.50;10.50;;;;;;;;4953119;28;28247;-82
2022/04/03 07:05:53;;;;;;;;;11.25;11.25;;;;;;;;4953051;28;28454;-82
2022/04/03 07:08:18;;;;;;;;;8.00;8.00;;;;;;;;4952838;28;28336;-83
2022/04/03 07:10:44;;;;;;;;;9.00;9.00;;;;;;;;4952756;28;28527;-84
2022/04/03 07:13:10;;;;;;;;;8.00;8.00;;;;;;;;4952862;28;28244;-83
2022/04/03 07:15:36;;;;;;;;;8.00;8.00;;;;;;;;4952767;28;28837;-83
2022/04/03 07:18:01;;;;;;;;;11.67;9.33;;;;;;;;4952731;28;27858;-83
2022/04/03 07:20:26;;;;;;;;;7.25;7.25;;;;;;;;4952696;28;28434;-83
2022/04/03 07:22:51;;;;;;;;;12.00;10.00;;;;;;;;4952899;28;27984;-84
2022/04/03 07:25:17;;;;;;;;;9.00;8.00;;;;;;;;4952807;28;28379;-82
2022/04/03 07:27:42;;;;;;;;;8.00;8.00;;;;;;;;4952370;28;28442;-81
2022/04/03 07:30:12;;;;;;;;;7.25;7.25;;;;;;;;4952374;28;28544;-84
2022/04/03 07:32:38;;;;;;;;;8.00;8.00;;;;;;;;4952355;28;28436;-84
2022/04/03 07:35:03;;;;;;;;;10.50;8.00;;;;;;;;4952919;28;28469;-85
2022/04/03 07:37:29;;;;;;;;;6.75;6.75;;;;;;;;4952377;28;28264;-83
2022/04/03 07:39:54;;;;;;;;;6.50;6.50;;;;;;;;4953511;28;29491;-86
2022/04/03 07:42:19;;;;;;;;;6.25;6.25;;;;;;;;4954404;28;28332;-90
2022/04/03 07:44:45;;;;;;;;;11.00;7.00;;;;;;;;4936505;28;28320;-90
2022/04/03 07:47:11;;;;;;;;;6.75;6.75;;;;;;;;4952450;28;28994;-87
2022/04/03 07:49:36;;;;;;;;;7.75;7.75;;;;;;;;4952743;28;28500;-85
2022/04/03 07:52:02;;;;;;;;;8.25;8.25;;;;;;;;4952480;28;29374;-87
2022/04/03 07:54:27;;;;;;;;;7.00;7.00;;;;;;;;4952604;28;28357;-87
2022/04/03 07:56:52;;;;;;;;;8.75;8.75;;;;;;;;4952299;28;28327;-86
2022/04/03 07:59:17;;;;;;;;;7.00;7.00;;;;;;;;4952599;28;28587;-84
2022/04/03 08:01:42;;;;;;;;;8.00;8.00;;;;;;;;4951345;28;28582;-87
2022/04/03 08:04:09;;;;;;;;;9.50;6.50;;;;;;;;4952258;28;28457;-86
2022/04/03 08:06:34;;;;;;;;;6.00;6.00;;;;;;;;4951972;28;28763;-87
2022/04/03 08:08:59;;;;;;;;;7.50;6.00;;;;;;;;4952633;28;29424;-85
2022/04/03 08:11:24;;;;;;;;;6.00;6.00;;;;;;;;4952388;28;28350;-86
2022/04/03 08:13:50;;;;;;;;;5.25;5.25;;;;;;;;4954566;28;28338;-89
2022/04/03 08:16:15;;;;;;;;;7.75;6.25;;;;;;;;4936249;28;28526;-88
2022/04/03 08:18:41;;;;;;;;;9.00;7.75;;;;;;;;4950259;28;29162;-88
2022/04/03 08:21:06;;;;;;;;;8.20;7.60;;;;;;;;4952316;28;28556;-87
2022/04/03 08:23:32;;;;;;;;;7.67;6.00;;;;;;;;4952147;28;28414;-87
2022/04/03 08:25:57;;;;;;;;;9.25;9.25;;;;;;;;4952124;28;28464;-89
2022/04/03 08:28:22;;;;;;;;;9.00;7.00;;;;;;;;4952545;28;28170;-88
2022/04/03 08:30:49;;;;;;;;;11.00;8.00;;;;;;;;4935069;28;28485;-90
2022/04/03 08:33:14;;;;;;;;;8.00;8.00;;;;;;;;4952062;28;28398;-86
2022/04/03 08:35:40;;;;;;;;;9.00;9.00;;;;;;;;4951715;28;28308;-87
2022/04/03 08:38:06;;;;;;;;;8.00;7.00;;;;;;;;4951474;28;29225;-87
2022/04/03 08:40:33;;;;;;;;;9.40;7.80;;;;;;;;4951646;28;28790;-88
2022/04/03 08:42:58;;;;;;;;;8.00;6.67;;;;;;;;4951690;28;28844;-86
2022/04/03 08:45:24;;;;;;;;;7.25;7.25;;;;;;;;4951619;28;28367;-89
2022/04/03 08:47:50;;;;;;;;;8.00;8.00;;;;;;;;4934248;28;28498;-87
2022/04/03 08:50:17;;;;;;;;;9.00;9.00;;;;;;;;4934947;28;28461;-89
2022/04/03 08:52:46;;;;;;;;;9.00;9.00;;;;;;;;4952217;28;28363;-89
2022/04/03 08:55:12;;;;;;;;;7.75;7.75;;;;;;;;4952252;28;28421;-88
2022/04/03 08:57:37;;;;;;;;;8.50;6.75;;;;;;;;4950584;28;28536;-89
2022/04/03 09:00:03;;;;;;;;;10.50;8.25;;;;;;;;4953049;28;28571;-88
2022/04/03 09:02:29;;;;;;;;;7.50;7.50;;;;;;;;4951206;28;28420;-89
2022/04/03 09:04:54;;;;;;;;;7.75;7.75;;;;;;;;4951849;28;28405;-90
2022/04/03 09:07:19;;;;;;;;;4.00;4.00;;;;;;;;4951139;28;28704;-88
2022/04/03 09:09:46;;;;;;;;;4.00;4.00;;;;;;;;4935124;28;28819;-92
2022/04/03 09:12:16;;;;;;;;;4.00;4.00;;;;;;;;4933853;28;28540;-88
2022/04/03 09:14:46;;;;;;;;;4.00;4.00;;;;;;;;4952572;28;28373;-88
2022/04/03 09:17:11;;;;;;;;;4.20;4.00;;;;;;;;4950782;28;28354;-85
2022/04/03 09:19:36;;;;;;;;;4.00;4.00;;;;;;;;4951397;28;28507;-83
2022/04/03 09:22:02;;;;;;;;;5.25;3.75;;;;;;;;4949947;28;28739;-84
2022/04/03 09:24:27;;;;;;;;;6.25;4.00;;;;;;;;4950423;28;28441;-85
2022/04/03 09:27:11;;;;;;;;;5.00;3.25;;;;;;;;4950676;28;29266;-84
2022/04/03 09:29:36;;;;;;;;;3.00;3.00;;;;;;;;4950742;28;28502;-86
2022/04/03 09:32:02;;;;;;;;;1.33;1.33;;;;;;;;4951249;28;28403;-85
2022/04/03 09:34:29;;;;;;;;;5.20;4.00;;;;;;;;4950809;28;28478;-86
2022/04/03 09:37:01;;;;;;;;;3.40;3.40;;;;;;;;4950707;28;29248;-87
2022/04/03 09:39:28;;;;;;;;;5.00;4.00;;;;;;;;4961537;28;28529;-87
2022/04/03 09:42:08;;;;;;;;;3.00;3.00;;;;;;;;4970276;28;28357;-85
2022/04/03 09:44:37;;;;;;;;;4.50;4.00;;;;;;;;4951296;28;28479;-88
2022/04/03 09:47:17;;;;;;;;;5.00;3.33;;;;;;;;4950407;28;29295;-85
2022/04/03 09:49:43;;;;;;;;;3.00;3.00;;;;;;;;4950747;28;28420;-87
2022/04/03 09:52:09;;;;;;;;;4.80;4.80;;;;;;;;4950207;28;27867;-86
2022/04/03 09:54:36;;;;;;;;;4.00;4.00;;;;;;;;4951080;28;28543;-86
2022/04/03 09:57:17;;;;;;;;;3.00;3.00;;;;;;;;4968262;28;28408;-86
2022/04/03 09:59:50;;;;;;;;;3.00;3.00;;;;;;;;4969604;28;28332;-87
2022/04/03 10:02:15;;;;;;;;;4.80;4.80;;;;;;;;4955791;28;28640;-87
2022/04/03 10:04:41;;;;;;;;;6.50;5.00;;;;;;;;4960331;28;28448;-85
2022/04/03 10:07:06;;;;;;;;;7.00;5.25;;;;;;;;4931231;28;28703;-83
2022/04/03 10:09:32;;;;;;;;;8.75;6.00;;;;;;;;4931102;28;28650;-84
2022/04/03 10:11:57;;;;;;;;;6.33;6.33;;;;;;;;4948928;28;28717;-83
2022/04/03 10:14:23;;;;;;;;;6.25;6.25;;;;;;;;4949595;28;28397;-83
2022/04/03 10:16:48;;;;;;;;;5.67;5.67;;;;;;;;4949580;28;29675;-83
2022/04/03 10:19:13;;;;;;;;;10.00;8.00;;;;;;;;4949432;28;28520;-83
2022/04/03 10:21:45;;;;;;;;;6.00;6.00;;;;;;;;4949595;28;28494;-83
2022/04/03 10:24:10;;;;;;;;;6.50;6.50;;;;;;;;4949639;28;28589;-86
2022/04/03 10:26:37;;;;;;;;;11.80;11.80;;;;;;;;4949949;28;28454;-87
2022/04/03 10:29:05;;;;;;;;;9.00;9.00;;;;;;;;4950894;28;28547;-87
2022/04/03 10:31:30;;;;;;;;;10.00;10.00;;;;;;;;4949949;28;28580;-88
2022/04/03 10:33:55;;;;;;;;;6.00;6.00;;;;;;;;4951071;28;28171;-91
2022/04/03 10:36:29;;;;;;;;;5.50;5.25;;;;;;;;4953964;28;28492;-85
2022/04/03 10:38:59;;;;;;;;;9.00;8.00;;;;;;;;4953262;28;28564;-86
2022/04/03 10:41:54;;;;;;;;;6.00;6.00;;;;;;;;4952664;28;28306;-85
2022/04/03 10:44:21;;;;;;;;;7.00;7.00;;;;;;;;4894916;29;28424;-91
2022/04/03 10:47:01;;;;;;;;;9.25;6.75;;;;;;;;4894755;29;28653;-90
2022/04/03 10:49:32;;;;;;;;;9.00;7.20;;;;;;;;4894745;29;28604;-88
2022/04/03 10:52:05;;;;;;;;;7.00;6.33;;;;;;;;4878397;29;28527;-88
2022/04/03 10:54:31;;;;;;;;;7.00;7.00;;;;;;;;4879388;29;28368;-89
2022/04/03 10:57:14;;;;;;;;;6.40;6.40;;;;;;;;4895077;29;28657;-92
2022/04/03 10:59:40;;;;;;;;;4.67;4.67;;;;;;;;4897541;29;28508;-91
2022/04/03 11:02:14;;;;;;;;;6.00;6.00;;;;;;;;4893553;29;28463;-90
2022/04/03 11:04:39;;;;;;;;;7.75;6.75;;;;;;;;4896843;29;28296;-91
2022/04/03 11:07:11;;;;;;;;;4.00;4.00;;;;;;;;4897086;29;28545;-90
2022/04/03 11:09:39;;;;;;;;;7.67;7.67;;;;;;;;4894384;29;28588;-88
2022/04/03 11:12:05;;;;;;;;;8.20;8.20;;;;;;;;4895420;29;28545;-88
2022/04/03 11:14:52;;;;;;;;;10.20;8.60;;;;;;;;4896187;29;28433;-88
2022/04/03 11:17:17;;;;;;;;;8.40;8.40;;;;;;;;4894871;29;29057;-88
2022/04/03 11:19:44;;;;;;;;;8.00;8.00;;;;;;;;4899823;28;28527;-89
2022/04/03 11:22:12;;;;;;;;;6.75;6.75;;;;;;;;4937072;28;28374;-87
2022/04/03 11:24:37;;;;;;;;;8.60;8.60;;;;;;;;4954505;28;28421;-87
2022/04/03 11:27:04;;;;;;;;;9.25;7.75;;;;;;;;4936345;28;30053;-88
2022/04/03 11:29:29;;;;;;;;;8.67;7.00;;;;;;;;4955228;28;28524;-82
2022/04/03 11:31:56;;;;;;;;;7.75;7.75;;;;;;;;4953178;28;28550;-86
2022/04/03 11:34:26;;;;;;;;;7.50;7.50;;;;;;;;4953662;28;27796;-87
2022/04/03 11:36:55;;;;;;;;;6.75;6.75;;;;;;;;4953884;28;28406;-87
2022/04/03 11:39:21;;;;;;;;;7.00;7.00;;;;;;;;4952471;28;28482;-87
2022/04/03 11:41:50;;;;;;;;;6.00;6.00;;;;;;;;4952773;28;28531;-89
2022/04/03 11:44:16;;;;;;;;;5.00;5.00;;;;;;;;4953239;28;28552;-88
2022/04/03 11:46:41;;;;;;;;;6.00;6.00;;;;;;;;4953382;28;29417;-85
2022/04/03 11:49:13;;;;;;;;;6.00;5.00;;;;;;;;4953067;28;28307;-85
2022/04/03 11:51:39;;;;;;;;;6.25;6.25;;;;;;;;4936371;28;28547;-88
2022/04/03 11:54:04;;;;;;;;;6.00;6.00;;;;;;;;4953778;28;28428;-88
2022/04/03 11:56:35;;;;;;;;;4.00;4.00;;;;;;;;4952721;28;29623;-84
2022/04/03 11:59:00;;;;;;;;;4.00;4.00;;;;;;;;4953696;28;28413;-85
2022/04/03 12:01:30;;;;;;;;;4.00;4.00;;;;;;;;4951643;28;28777;-84
2022/04/03 12:04:09;;;;;;;;;5.25;5.25;;;;;;;;4951897;28;28539;-84
2022/04/03 12:06:37;;;;;;;;;6.60;6.60;;;;;;;;4951966;28;29424;-87
2022/04/03 12:09:09;;;;;;;;;4.25;4.25;;;;;;;;4951956;28;28327;-89
2022/04/03 12:11:35;;;;;;;;;6.20;4.80;;;;;;;;4934141;28;28741;-85
2022/04/03 12:14:01;;;;;;;;;6.00;6.00;;;;;;;;4952119;28;28688;-85
2022/04/03 12:16:27;;;;;;;;;5.20;5.20;;;;;;;;4954230;28;28485;-94
2022/04/03 12:18:57;;;;;;;;;6.50;6.50;;;;;;;;4936147;28;29745;-91
2022/04/03 12:21:36;;;;;;;;;5.00;5.00;;;;;;;;4955443;28;28489;-87
2022/04/03 12:24:05;;;;;;;;;5.00;5.00;;;;;;;;4952756;28;28957;-85
2022/04/03 12:26:31;;;;;;;;;9.75;7.00;;;;;;;;4952104;28;28564;-86
2022/04/03 12:28:56;;;;;;;;;6.00;6.00;;;;;;;;4951484;28;28338;-85
2022/04/03 12:31:28;;;;;;;;;5.20;5.20;;;;;;;;4952683;28;28532;-86
2022/04/03 12:34:03;;;;;;;;;6.00;6.00;;;;;;;;4952786;28;28451;-86
2022/04/03 12:36:43;;;;;;;;;4.25;4.25;;;;;;;;4951455;28;29111;-82
2022/04/03 12:39:27;;;;;;;;;7.00;7.00;;;;;;;;4935267;28;28416;-86
2022/04/03 12:41:52;;;;;;;;;9.00;9.00;;;;;;;;4951590;28;28405;-80
2022/04/03 12:44:18;;;;;;;;;62.50;50.75;;;;;;;;4953531;28;27911;-85
2022/04/03 12:46:45;;;;;;;;;21.00;20.00;;;;;;;;4951455;28;29538;-81
2022/04/03 12:49:14;;;;;;;;;8.00;8.00;;;;;;;;4951723;28;28319;-80
2022/04/03 12:51:46;;;;;;;;;19.40;19.00;;;;;;;;4951876;28;28612;-82
2022/04/03 12:54:12;;;;;;;;;8.00;8.00;;;;;;;;4952750;28;28346;-86
2022/04/03 12:59:21;;;;;;;;;9.80;9.80;;;;;;;;4962178;28;28256;-91
2022/04/03 13:01:50;;;;;;;;;15.00;15.00;;;;;;;;4959105;28;28272;-92
2022/04/03 13:04:29;;;;;;;;;13.75;13.75;;;;;;;;4957861;28;28936;-91
2022/04/03 13:06:54;;;;;;;;;15.00;13.60;;;;;;;;4941592;28;28760;-93
2022/04/03 13:09:19;;;;;;;;;7.75;6.25;;;;;;;;4941250;28;28502;-92
2022/04/03 13:11:48;;;;;;;;;26.00;24.67;;;;;;;;4941646;28;28577;-93
2022/04/03 13:14:14;;;;;;;;;18.50;18.50;;;;;;;;4939363;28;28437;-90
2022/04/03 13:16:41;;;;;;;;;5.00;5.00;;;;;;;;4955303;28;29437;-94
2022/04/03 13:19:06;;;;;;;;;4.20;4.20;;;;;;;;4940100;28;29651;-88
2022/04/03 13:21:35;;;;;;;;;3.33;3.33;;;;;;;;4941360;28;28397;-86
2022/04/03 13:24:01;;;;;;;;;4.75;4.75;;;;;;;;4956760;28;28325;-90
2022/04/03 13:26:26;;;;;;;;;5.75;5.75;;;;;;;;4956410;28;28562;-84
2022/04/03 13:28:52;;;;;;;;;4.33;4.33;;;;;;;;4957063;28;28341;-89
2022/04/03 13:31:17;;;;;;;;;45.00;38.00;;;;;;;;4955485;28;28327;-86
2022/04/03 13:33:42;;;;;;;;;18.33;17.00;;;;;;;;4955376;28;28492;-96
2022/04/03 13:36:07;;;;;;;;;10.67;10.67;;;;;;;;4945387;28;29761;-90
2022/04/03 13:38:32;;;;;;;;;6.25;6.25;;;;;;;;4944489;28;28380;-93
2022/04/03 13:40:58;;;;;;;;;6.00;6.00;;;;;;;;4945296;28;27878;-91
2022/04/03 13:43:23;;;;;;;;;4.50;4.50;;;;;;;;4947784;28;27878;-92
2022/04/03 13:45:57;;;;;;;;;4.50;4.50;;;;;;;;4945397;28;30226;-90
2022/04/03 13:48:35;;;;;;;;;24.00;23.00;;;;;;;;4960660;28;28553;-93
2022/04/03 13:51:01;;;;;;;;;9.75;9.75;;;;;;;;4955607;28;28552;-89
2022/04/03 13:53:27;;;;;;;;;5.00;5.00;;;;;;;;4941556;28;28512;-91
2022/04/03 13:55:52;;;;;;;;;7.00;7.00;;;;;;;;4945479;28;29766;-94
2022/04/03 13:58:18;;;;;;;;;5.00;5.00;;;;;;;;4941796;28;29006;-90
2022/04/03 14:00:43;;;;;;;;;5.00;5.00;;;;;;;;4941651;28;28357;-94
2022/04/03 14:03:09;;;;;;;;;5.00;5.00;;;;;;;;4946070;28;27894;-94
2022/04/03 14:05:35;;;;;;;;;6.00;6.00;;;;;;;;4965497;28;28522;-91
2022/04/03 14:08:00;;;;;;;;;5.00;5.00;;;;;;;;4950798;28;28378;-91
2022/04/03 14:10:25;;;;;;;;;39.75;35.00;;;;;;;;4931475;28;28200;-92
2022/04/03 14:12:51;;;;;;;;;19.00;17.67;;;;;;;;4943174;28;28065;-91
2022/04/03 14:15:16;;;;;;;;;75.50;67.75;;;;;;;;4945016;28;30044;-93
2022/04/03 14:17:41;;;;;;;;;6.50;5.25;;;;;;;;4950429;28;29162;-92
2022/04/03 14:20:10;;;;;;;;;7.00;7.00;;;;;;;;4951336;28;27732;-94
2022/04/03 14:22:52;;;;;;;;;7.00;5.80;;;;;;;;4903130;29;28316;-86
2022/04/03 14:25:17;;;;;;;;;4.00;4.00;;;;;;;;4894260;29;28307;-88
2022/04/03 14:27:43;;;;;;;;;6.00;6.00;;;;;;;;4897545;29;28560;-88
2022/04/03 14:30:08;;;;;;;;;6.00;6.00;;;;;;;;4894296;29;28553;-85
2022/04/03 14:32:34;;;;;;;;;4.00;4.00;;;;;;;;4897711;29;28509;-90
2022/04/03 14:35:00;;;;;;;;;4.00;4.00;;;;;;;;4892077;29;28558;-87